Terminal Aerodrome Forecast
Issued by NWS

Home | Current Version | Previous Version | Text Only | Print | Product List | Glossary On
Versions: 1 2 3 4 5 6 7 8 9 10 11 12 13 14 15 16 17 18 19 20
000
FTUS42 KMHX 222100 AAB
TAFISO
TAF AMD
KISO 222145Z 2222/2318 12006KT 6SM BR VCSH BKN008
     FM230000 18003KT P6SM SCT009 OVC120
     FM230700 20003KT 3SM BR SCT007
     FM231300 22006KT P6SM SCT025
      AMD LTD TO CLD VIS AND WIND=

USA.gov is the U.S. government's official web portal to all federal, state and local government web resources and services.